sensor_id;sensor_type;location;lat;lon;timestamp;P1;durP1;ratioP1;P2;durP2;ratioP2
6953;SDS011;3516;47.980;8.808;2023-04-03T05:00:41;5.85;;;5.35;;
6953;SDS011;3516;47.980;8.808;2023-04-03T05:03:08;6.70;;;6.00;;
6953;SDS011;3516;47.980;8.808;2023-04-03T05:05:35;5.68;;;5.07;;
6953;SDS011;3516;47.980;8.808;2023-04-03T05:08:02;5.43;;;5.03;;
6953;SDS011;3516;47.980;8.808;2023-04-03T05:10:30;6.65;;;6.05;;
6953;SDS011;3516;47.980;8.808;2023-04-03T05:12:57;6.47;;;5.32;;
6953;SDS011;3516;47.980;8.808;2023-04-03T05:15:24;5.72;;;5.32;;
6953;SDS011;3516;47.980;8.808;2023-04-03T05:17:52;6.03;;;4.45;;
6953;SDS011;3516;47.980;8.808;2023-04-03T05:20:19;4.60;;;4.20;;
6953;SDS011;3516;47.980;8.808;2023-04-03T05:22:46;4.53;;;4.18;;
6953;SDS011;3516;47.980;8.808;2023-04-03T05:25:13;5.38;;;4.88;;
6953;SDS011;3516;47.980;8.808;2023-04-03T05:27:40;4.05;;;3.75;;
6953;SDS011;3516;47.980;8.808;2023-04-03T05:30:08;4.40;;;4.10;;
6953;SDS011;3516;47.980;8.808;2023-04-03T05:32:35;4.70;;;4.45;;
6953;SDS011;3516;47.980;8.808;2023-04-03T05:35:04;3.95;;;3.75;;
6953;SDS011;3516;47.980;8.808;2023-04-03T05:37:32;4.05;;;3.75;;
6953;SDS011;3516;47.980;8.808;2023-04-03T05:39:59;4.43;;;4.03;;
6953;SDS011;3516;47.980;8.808;2023-04-03T05:42:26;4.40;;;4.10;;
6953;SDS011;3516;47.980;8.808;2023-04-03T05:44:53;3.75;;;3.55;;
6953;SDS011;3516;47.980;8.808;2023-04-03T05:47:21;4.00;;;3.35;;
6953;SDS011;3516;47.980;8.808;2023-04-03T05:49:48;3.70;;;3.40;;
6953;SDS011;3516;47.980;8.808;2023-04-03T05:52:20;3.53;;;3.20;;
6953;SDS011;3516;47.980;8.808;2023-04-03T05:54:48;3.25;;;3.05;;
6953;SDS011;3516;47.980;8.808;2023-04-03T05:57:15;3.95;;;3.65;;
6953;SDS011;3516;47.980;8.808;2023-04-03T05:59:43;3.28;;;3.10;;
6953;SDS011;3516;47.980;8.808;2023-04-03T06:02:11;3.35;;;3.17;;
6953;SDS011;3516;47.980;8.808;2023-04-03T06:04:38;3.35;;;3.10;;
6953;SDS011;3516;47.980;8.808;2023-04-03T06:07:06;3.78;;;3.53;;
6953;SDS011;3516;47.980;8.808;2023-04-03T06:09:35;4.03;;;3.83;;
6953;SDS011;3516;47.980;8.808;2023-04-03T06:12:02;4.75;;;4.45;;
6953;SDS011;3516;47.980;8.808;2023-04-03T06:14:33;4.40;;;4.10;;
6953;SDS011;3516;47.980;8.808;2023-04-03T06:17:00;5.22;;;4.20;;
6953;SDS011;3516;47.980;8.808;2023-04-03T06:19:28;4.25;;;3.97;;
6953;SDS011;3516;47.980;8.808;2023-04-03T06:21:55;4.57;;;4.28;;
6953;SDS011;3516;47.980;8.808;2023-04-03T06:24:23;4.55;;;4.20;;
6953;SDS011;3516;47.980;8.808;2023-04-03T06:26:52;4.40;;;4.10;;
6953;SDS011;3516;47.980;8.808;2023-04-03T06:29:20;3.05;;;2.95;;
6953;SDS011;3516;47.980;8.808;2023-04-03T06:31:47;4.13;;;3.83;;
6953;SDS011;3516;47.980;8.808;2023-04-03T06:34:15;4.43;;;4.13;;
6953;SDS011;3516;47.980;8.808;2023-04-03T06:36:43;4.18;;;3.88;;
6953;SDS011;3516;47.980;8.808;2023-04-03T06:39:11;7.00;;;4.57;;
6953;SDS011;3516;47.980;8.808;2023-04-03T06:41:39;5.18;;;4.70;;
6953;SDS011;3516;47.980;8.808;2023-04-03T06:44:08;4.80;;;4.40;;
6953;SDS011;3516;47.980;8.808;2023-04-03T06:46:36;6.50;;;4.78;;
6953;SDS011;3516;47.980;8.808;2023-04-03T06:49:03;5.13;;;4.30;;
6953;SDS011;3516;47.980;8.808;2023-04-03T06:51:32;7.18;;;4.82;;
6953;SDS011;3516;47.980;8.808;2023-04-03T06:53:59;4.45;;;4.05;;
6953;SDS011;3516;47.980;8.808;2023-04-03T06:56:27;5.20;;;4.78;;
6953;SDS011;3516;47.980;8.808;2023-04-03T06:58:54;4.53;;;4.22;;
6953;SDS011;3516;47.980;8.808;2023-04-03T07:01:24;4.80;;;4.22;;
6953;SDS011;3516;47.980;8.808;2023-04-03T07:03:52;3.92;;;3.63;;
6953;SDS011;3516;47.980;8.808;2023-04-03T07:06:19;4.15;;;3.80;;
6953;SDS011;3516;47.980;8.808;2023-04-03T07:08:46;4.78;;;3.50;;
6953;SDS011;3516;47.980;8.808;2023-04-03T07:11:14;3.55;;;3.35;;
6953;SDS011;3516;47.980;8.808;2023-04-03T07:13:41;3.63;;;3.42;;
6953;SDS011;3516;47.980;8.808;2023-04-03T07:16:09;3.30;;;3.10;;
6953;SDS011;3516;47.980;8.808;2023-04-03T07:18:37;3.53;;;3.33;;
6953;SDS011;3516;47.980;8.808;2023-04-03T07:21:05;2.90;;;2.80;;
6953;SDS011;3516;47.980;8.808;2023-04-03T07:23:32;3.17;;;2.97;;
6953;SDS011;3516;47.980;8.808;2023-04-03T07:25:59;3.17;;;2.97;;
6953;SDS011;3516;47.980;8.808;2023-04-03T07:28:27;2.95;;;2.75;;
6953;SDS011;3516;47.980;8.808;2023-04-03T07:31:01;3.28;;;2.50;;
6953;SDS011;3516;47.980;8.808;2023-04-03T07:33:28;2.72;;;2.63;;
6953;SDS011;3516;47.980;8.808;2023-04-03T07:35:57;2.70;;;2.60;;
6953;SDS011;3516;47.980;8.808;2023-04-03T07:38:25;3.25;;;2.72;;
6953;SDS011;3516;47.980;8.808;2023-04-03T07:40:52;2.60;;;2.45;;
6953;SDS011;3516;47.980;8.808;2023-04-03T07:43:20;2.35;;;2.20;;
6953;SDS011;3516;47.980;8.808;2023-04-03T07:45:47;2.85;;;2.75;;
6953;SDS011;3516;47.980;8.808;2023-04-03T07:48:15;2.42;;;2.30;;
6953;SDS011;3516;47.980;8.808;2023-04-03T07:50:43;4.88;;;3.60;;
6953;SDS011;3516;47.980;8.808;2023-04-03T07:53:11;3.40;;;3.20;;
6953;SDS011;3516;47.980;8.808;2023-04-03T07:55:39;7.65;;;4.88;;
6953;SDS011;3516;47.980;8.808;2023-04-03T07:58:10;2.30;;;2.20;;
6953;SDS011;3516;47.980;8.808;2023-04-03T08:00:37;3.95;;;3.53;;
6953;SDS011;3516;47.980;8.808;2023-04-03T08:03:04;5.45;;;3.70;;
6953;SDS011;3516;47.980;8.808;2023-04-03T08:05:31;7.68;;;4.18;;
6953;SDS011;3516;47.980;8.808;2023-04-03T08:08:02;5.28;;;4.78;;
6953;SDS011;3516;47.980;8.808;2023-04-03T08:10:31;4.68;;;4.22;;
6953;SDS011;3516;47.980;8.808;2023-04-03T08:12:58;3.55;;;3.33;;
6953;SDS011;3516;47.980;8.808;2023-04-03T08:15:25;2.35;;;2.20;;
6953;SDS011;3516;47.980;8.808;2023-04-03T08:17:52;1.98;;;1.88;;
6953;SDS011;3516;47.980;8.808;2023-04-03T08:20:19;2.28;;;2.17;;
6953;SDS011;3516;47.980;8.808;2023-04-03T08:22:46;3.10;;;2.90;;
6953;SDS011;3516;47.980;8.808;2023-04-03T08:25:13;2.83;;;2.53;;
6953;SDS011;3516;47.980;8.808;2023-04-03T08:27:43;2.38;;;2.22;;
6953;SDS011;3516;47.980;8.808;2023-04-03T08:30:10;2.63;;;2.42;;
6953;SDS011;3516;47.980;8.808;2023-04-03T08:32:38;2.65;;;2.38;;
6953;SDS011;3516;47.980;8.808;2023-04-03T08:35:07;2.40;;;2.30;;
6953;SDS011;3516;47.980;8.808;2023-04-03T08:37:34;2.88;;;2.78;;
6953;SDS011;3516;47.980;8.808;2023-04-03T08:40:02;2.63;;;2.50;;
6953;SDS011;3516;47.980;8.808;2023-04-03T08:42:34;4.55;;;3.70;;
6953;SDS011;3516;47.980;8.808;2023-04-03T08:45:05;3.20;;;2.90;;
6953;SDS011;3516;47.980;8.808;2023-04-03T08:47:37;2.97;;;2.78;;
6953;SDS011;3516;47.980;8.808;2023-04-03T08:50:06;2.70;;;2.50;;
6953;SDS011;3516;47.980;8.808;2023-04-03T08:52:34;3.15;;;2.92;;
6953;SDS011;3516;47.980;8.808;2023-04-03T08:55:03;2.72;;;2.53;;
6953;SDS011;3516;47.980;8.808;2023-04-03T08:57:32;3.08;;;2.70;;
6953;SDS011;3516;47.980;8.808;2023-04-03T09:00:01;3.53;;;2.97;;
6953;SDS011;3516;47.980;8.808;2023-04-03T09:02:33;2.53;;;2.42;;
6953;SDS011;3516;47.980;8.808;2023-04-03T09:05:01;2.70;;;2.50;;
6953;SDS011;3516;47.980;8.808;2023-04-03T09:07:31;2.60;;;2.42;;
6953;SDS011;3516;47.980;8.808;2023-04-03T09:10:00;2.30;;;2.20;;
6953;SDS011;3516;47.980;8.808;2023-04-03T09:12:31;2.67;;;2.58;;
6953;SDS011;3516;47.980;8.808;2023-04-03T09:15:00;2.75;;;2.53;;
6953;SDS011;3516;47.980;8.808;2023-04-03T09:17:35;2.53;;;2.33;;
6953;SDS011;3516;47.980;8.808;2023-04-03T09:20:07;3.22;;;3.03;;
6953;SDS011;3516;47.980;8.808;2023-04-03T09:22:34;2.72;;;2.63;;
6953;SDS011;3516;47.980;8.808;2023-04-03T09:25:05;2.40;;;2.30;;
6953;SDS011;3516;47.980;8.808;2023-04-03T09:27:37;2.28;;;2.17;;
6953;SDS011;3516;47.980;8.808;2023-04-03T09:30:04;2.40;;;2.30;;
6953;SDS011;3516;47.980;8.808;2023-04-03T09:32:33;2.50;;;2.30;;
6953;SDS011;3516;47.980;8.808;2023-04-03T09:35:04;2.03;;;2.03;;
6953;SDS011;3516;47.980;8.808;2023-04-03T09:37:34;2.40;;;2.30;;
6953;SDS011;3516;47.980;8.808;2023-04-03T09:40:02;6.28;;;2.72;;
6953;SDS011;3516;47.980;8.808;2023-04-03T09:42:30;4.93;;;2.63;;
6953;SDS011;3516;47.980;8.808;2023-04-03T09:44:58;2.65;;;2.45;;
6953;SDS011;3516;47.980;8.808;2023-04-03T09:47:26;2.67;;;2.53;;
6953;SDS011;3516;47.980;8.808;2023-04-03T09:50:08;3.53;;;3.30;;
6953;SDS011;3516;47.980;8.808;2023-04-03T09:52:35;2.90;;;2.70;;
6953;SDS011;3516;47.980;8.808;2023-04-03T09:55:05;2.85;;;2.65;;
6953;SDS011;3516;47.980;8.808;2023-04-03T09:57:33;3.10;;;2.90;;
6953;SDS011;3516;47.980;8.808;2023-04-03T10:00:01;3.70;;;2.38;;
6953;SDS011;3516;47.980;8.808;2023-04-03T10:02:34;2.90;;;2.67;;
6953;SDS011;3516;47.980;8.808;2023-04-03T10:05:01;2.53;;;2.38;;
6953;SDS011;3516;47.980;8.808;2023-04-03T10:07:31;2.53;;;2.33;;
6953;SDS011;3516;47.980;8.808;2023-04-03T10:09:59;2.88;;;2.67;;
6953;SDS011;3516;47.980;8.808;2023-04-03T10:12:26;2.72;;;2.53;;
6953;SDS011;3516;47.980;8.808;2023-04-03T10:14:54;3.45;;;2.50;;
6953;SDS011;3516;47.980;8.808;2023-04-03T10:17:22;3.00;;;2.90;;
6953;SDS011;3516;47.980;8.808;2023-04-03T10:19:52;4.32;;;3.50;;
6953;SDS011;3516;47.980;8.808;2023-04-03T10:22:22;3.75;;;3.45;;
6953;SDS011;3516;47.980;8.808;2023-04-03T10:24:56;3.00;;;2.80;;
6953;SDS011;3516;47.980;8.808;2023-04-03T10:27:27;3.33;;;3.03;;
6953;SDS011;3516;47.980;8.808;2023-04-03T10:29:59;3.33;;;3.13;;
6953;SDS011;3516;47.980;8.808;2023-04-03T10:32:31;2.92;;;2.60;;
6953;SDS011;3516;47.980;8.808;2023-04-03T10:35:07;2.90;;;2.70;;
6953;SDS011;3516;47.980;8.808;2023-04-03T10:37:35;2.92;;;2.67;;
6953;SDS011;3516;47.980;8.808;2023-04-03T10:40:12;3.13;;;2.92;;
6953;SDS011;3516;47.980;8.808;2023-04-03T10:42:43;6.30;;;3.28;;
6953;SDS011;3516;47.980;8.808;2023-04-03T10:45:19;2.78;;;2.67;;
6953;SDS011;3516;47.980;8.808;2023-04-03T10:47:50;3.15;;;2.95;;
6953;SDS011;3516;47.980;8.808;2023-04-03T10:50:26;2.55;;;2.35;;
6953;SDS011;3516;47.980;8.808;2023-04-03T10:52:57;4.82;;;2.78;;
6953;SDS011;3516;47.980;8.808;2023-04-03T10:55:32;3.10;;;2.90;;
6953;SDS011;3516;47.980;8.808;2023-04-03T10:58:01;2.88;;;2.67;;
6953;SDS011;3516;47.980;8.808;2023-04-03T11:00:30;2.78;;;2.58;;
6953;SDS011;3516;47.980;8.808;2023-04-03T11:03:01;3.13;;;2.83;;
6953;SDS011;3516;47.980;8.808;2023-04-03T11:05:31;3.15;;;2.85;;
6953;SDS011;3516;47.980;8.808;2023-04-03T11:08:02;2.28;;;2.17;;
6953;SDS011;3516;47.980;8.808;2023-04-03T11:10:31;2.65;;;2.55;;
6953;SDS011;3516;47.980;8.808;2023-04-03T11:13:06;2.70;;;2.60;;
6953;SDS011;3516;47.980;8.808;2023-04-03T11:15:35;2.65;;;2.45;;
6953;SDS011;3516;47.980;8.808;2023-04-03T11:18:03;2.33;;;2.22;;
6953;SDS011;3516;47.980;8.808;2023-04-03T11:20:31;2.72;;;2.53;;
6953;SDS011;3516;47.980;8.808;2023-04-03T11:23:00;2.10;;;1.98;;
6953;SDS011;3516;47.980;8.808;2023-04-03T11:25:29;2.28;;;2.17;;
6953;SDS011;3516;47.980;8.808;2023-04-03T11:27:58;2.40;;;2.20;;
6953;SDS011;3516;47.980;8.808;2023-04-03T11:30:30;3.22;;;2.10;;
6953;SDS011;3516;47.980;8.808;2023-04-03T11:33:03;2.63;;;2.47;;
6953;SDS011;3516;47.980;8.808;2023-04-03T11:35:32;2.30;;;2.13;;
6953;SDS011;3516;47.980;8.808;2023-04-03T11:38:00;3.10;;;2.80;;
6953;SDS011;3516;47.980;8.808;2023-04-03T11:40:28;3.05;;;2.53;;
6953;SDS011;3516;47.980;8.808;2023-04-03T11:43:02;2.35;;;2.15;;
6953;SDS011;3516;47.980;8.808;2023-04-03T11:45:46;2.30;;;2.20;;
6953;SDS011;3516;47.980;8.808;2023-04-03T11:51:02;2.03;;;1.70;;
6953;SDS011;3516;47.980;8.808;2023-04-03T11:53:33;2.30;;;2.15;;
6953;SDS011;3516;47.980;8.808;2023-04-03T11:56:01;2.25;;;2.15;;
6953;SDS011;3516;47.980;8.808;2023-04-03T11:58:30;1.67;;;1.67;;
6953;SDS011;3516;47.980;8.808;2023-04-03T12:00:59;2.00;;;1.90;;
6953;SDS011;3516;47.980;8.808;2023-04-03T12:09:04;2.60;;;1.98;;
6953;SDS011;3516;47.980;8.808;2023-04-03T12:11:48;2.00;;;1.90;;
6953;SDS011;3516;47.980;8.808;2023-04-03T12:14:16;2.53;;;2.42;;
6953;SDS011;3516;47.980;8.808;2023-04-03T12:16:45;2.45;;;2.30;;
6953;SDS011;3516;47.980;8.808;2023-04-03T12:19:35;1.80;;;1.70;;
6953;SDS011;3516;47.980;8.808;2023-04-03T12:22:15;2.22;;;2.05;;
6953;SDS011;3516;47.980;8.808;2023-04-03T12:24:46;3.20;;;2.10;;
6953;SDS011;3516;47.980;8.808;2023-04-03T12:27:24;2.60;;;2.50;;
6953;SDS011;3516;47.980;8.808;2023-04-03T12:29:53;2.40;;;2.28;;
6953;SDS011;3516;47.980;8.808;2023-04-03T12:32:25;3.58;;;1.63;;
6953;SDS011;3516;47.980;8.808;2023-04-03T12:34:55;2.55;;;2.35;;
6953;SDS011;3516;47.980;8.808;2023-04-03T12:37:32;2.38;;;2.20;;
6953;SDS011;3516;47.980;8.808;2023-04-03T12:40:06;2.00;;;1.90;;
6953;SDS011;3516;47.980;8.808;2023-04-03T12:42:41;1.88;;;1.77;;
6953;SDS011;3516;47.980;8.808;2023-04-03T12:45:12;2.15;;;2.05;;
6953;SDS011;3516;47.980;8.808;2023-04-03T12:47:42;2.10;;;2.00;;
6953;SDS011;3516;47.980;8.808;2023-04-03T12:50:17;2.55;;;2.38;;
6953;SDS011;3516;47.980;8.808;2023-04-03T12:52:47;2.38;;;2.00;;
6953;SDS011;3516;47.980;8.808;2023-04-03T12:55:17;2.33;;;2.22;;
6953;SDS011;3516;47.980;8.808;2023-04-03T12:57:45;3.67;;;2.10;;
6953;SDS011;3516;47.980;8.808;2023-04-03T13:00:18;3.60;;;1.90;;
6953;SDS011;3516;47.980;8.808;2023-04-03T13:02:47;2.25;;;2.10;;
6953;SDS011;3516;47.980;8.808;2023-04-03T13:05:15;3.65;;;2.20;;
6953;SDS011;3516;47.980;8.808;2023-04-03T13:07:44;2.10;;;2.00;;
6953;SDS011;3516;47.980;8.808;2023-04-03T13:10:15;2.50;;;2.30;;
6953;SDS011;3516;47.980;8.808;2023-04-03T13:12:47;2.40;;;2.20;;
6953;SDS011;3516;47.980;8.808;2023-04-03T13:15:16;2.20;;;2.00;;
6953;SDS011;3516;47.980;8.808;2023-04-03T13:17:43;2.35;;;2.15;;
6953;SDS011;3516;47.980;8.808;2023-04-03T13:20:13;2.28;;;2.17;;
6953;SDS011;3516;47.980;8.808;2023-04-03T13:22:43;2.25;;;2.10;;
6953;SDS011;3516;47.980;8.808;2023-04-03T13:25:13;2.47;;;2.38;;
6953;SDS011;3516;47.980;8.808;2023-04-03T13:27:41;2.28;;;2.05;;
6953;SDS011;3516;47.980;8.808;2023-04-03T13:30:17;1.80;;;1.70;;
6953;SDS011;3516;47.980;8.808;2023-04-03T13:32:46;2.20;;;2.10;;
6953;SDS011;3516;47.980;8.808;2023-04-03T13:35:28;3.60;;;3.03;;
6953;SDS011;3516;47.980;8.808;2023-04-03T13:37:57;2.33;;;2.22;;
6953;SDS011;3516;47.980;8.808;2023-04-03T13:40:24;2.30;;;2.20;;
6953;SDS011;3516;47.980;8.808;2023-04-03T13:42:58;3.83;;;2.95;;
6953;SDS011;3516;47.980;8.808;2023-04-03T13:45:26;2.85;;;2.65;;
6953;SDS011;3516;47.980;8.808;2023-04-03T13:48:05;2.72;;;2.53;;
6953;SDS011;3516;47.980;8.808;2023-04-03T13:50:41;3.42;;;3.22;;
6953;SDS011;3516;47.980;8.808;2023-04-03T13:53:16;4.55;;;4.15;;
6953;SDS011;3516;47.980;8.808;2023-04-03T13:55:52;3.28;;;3.05;;
6953;SDS011;3516;47.980;8.808;2023-04-03T13:58:21;2.50;;;2.38;;
6953;SDS011;3516;47.980;8.808;2023-04-03T14:00:50;3.40;;;2.97;;
6953;SDS011;3516;47.980;8.808;2023-04-03T14:03:18;3.20;;;2.58;;
6953;SDS011;3516;47.980;8.808;2023-04-03T14:05:49;4.20;;;2.70;;
6953;SDS011;3516;47.980;8.808;2023-04-03T14:08:16;2.20;;;2.00;;
6953;SDS011;3516;47.980;8.808;2023-04-03T14:10:43;2.55;;;2.30;;
6953;SDS011;3516;47.980;8.808;2023-04-03T14:13:11;2.25;;;2.15;;
6953;SDS011;3516;47.980;8.808;2023-04-03T14:15:38;3.80;;;2.67;;
6953;SDS011;3516;47.980;8.808;2023-04-03T14:18:06;2.50;;;2.33;;
6953;SDS011;3516;47.980;8.808;2023-04-03T14:20:33;2.95;;;2.25;;
6953;SDS011;3516;47.980;8.808;2023-04-03T14:23:01;2.08;;;1.98;;
6953;SDS011;3516;47.980;8.808;2023-04-03T14:25:29;2.17;;;2.08;;
6953;SDS011;3516;47.980;8.808;2023-04-03T14:27:56;3.45;;;2.10;;
6953;SDS011;3516;47.980;8.808;2023-04-03T14:30:26;2.05;;;1.95;;
6953;SDS011;3516;47.980;8.808;2023-04-03T14:32:53;3.72;;;2.47;;
6953;SDS011;3516;47.980;8.808;2023-04-03T14:35:20;3.30;;;3.00;;
6953;SDS011;3516;47.980;8.808;2023-04-03T14:37:48;5.40;;;2.90;;
6953;SDS011;3516;47.980;8.808;2023-04-03T14:40:18;5.03;;;2.78;;
6953;SDS011;3516;47.980;8.808;2023-04-03T14:42:45;3.20;;;2.90;;
6953;SDS011;3516;47.980;8.808;2023-04-03T14:45:14;3.50;;;2.95;;
6953;SDS011;3516;47.980;8.808;2023-04-03T14:47:42;3.40;;;2.58;;
6953;SDS011;3516;47.980;8.808;2023-04-03T14:50:12;2.20;;;2.10;;
6953;SDS011;3516;47.980;8.808;2023-04-03T14:52:42;2.17;;;1.92;;
6953;SDS011;3516;47.980;8.808;2023-04-03T14:55:11;2.00;;;1.95;;
6953;SDS011;3516;47.980;8.808;2023-04-03T14:57:42;2.58;;;2.47;;
6953;SDS011;3516;47.980;8.808;2023-04-03T15:00:11;2.75;;;2.38;;
6953;SDS011;3516;47.980;8.808;2023-04-03T15:02:40;1.90;;;1.80;;
6953;SDS011;3516;47.980;8.808;2023-04-03T15:05:07;2.63;;;2.35;;
6953;SDS011;3516;47.980;8.808;2023-04-03T15:07:36;2.38;;;2.28;;
6953;SDS011;3516;47.980;8.808;2023-04-03T15:10:10;2.00;;;1.90;;
6953;SDS011;3516;47.980;8.808;2023-04-03T15:12:43;2.35;;;2.17;;
6953;SDS011;3516;47.980;8.808;2023-04-03T15:15:11;2.20;;;2.10;;
6953;SDS011;3516;47.980;8.808;2023-04-03T15:17:38;2.08;;;1.98;;
6953;SDS011;3516;47.980;8.808;2023-04-03T15:20:09;3.50;;;1.95;;
6953;SDS011;3516;47.980;8.808;2023-04-03T15:22:39;1.73;;;1.67;;
6953;SDS011;3516;47.980;8.808;2023-04-03T15:25:06;2.03;;;1.90;;
6953;SDS011;3516;47.980;8.808;2023-04-03T15:27:34;4.50;;;3.17;;
6953;SDS011;3516;47.980;8.808;2023-04-03T15:30:03;2.75;;;2.50;;
6953;SDS011;3516;47.980;8.808;2023-04-03T15:32:30;2.60;;;2.50;;
6953;SDS011;3516;47.980;8.808;2023-04-03T15:34:58;9.38;;;4.78;;
6953;SDS011;3516;47.980;8.808;2023-04-03T15:37:25;12.13;;;5.65;;
6953;SDS011;3516;47.980;8.808;2023-04-03T15:39:52;9.18;;;4.15;;
6953;SDS011;3516;47.980;8.808;2023-04-03T15:42:18;10.77;;;5.47;;
6953;SDS011;3516;47.980;8.808;2023-04-03T15:44:45;19.02;;;7.93;;
6953;SDS011;3516;47.980;8.808;2023-04-03T15:47:13;6.72;;;4.25;;
6953;SDS011;3516;47.980;8.808;2023-04-03T15:49:40;4.05;;;3.65;;
6953;SDS011;3516;47.980;8.808;2023-04-03T15:52:07;7.70;;;3.85;;
6953;SDS011;3516;47.980;8.808;2023-04-03T15:54:34;8.32;;;5.05;;
6953;SDS011;3516;47.980;8.808;2023-04-03T15:57:00;8.75;;;5.00;;
6953;SDS011;3516;47.980;8.808;2023-04-03T15:59:27;3.92;;;3.10;;
6953;SDS011;3516;47.980;8.808;2023-04-03T16:01:57;6.78;;;4.32;;
6953;SDS011;3516;47.980;8.808;2023-04-03T16:04:27;2.15;;;2.05;;
6953;SDS011;3516;47.980;8.808;2023-04-03T16:06:54;6.35;;;3.40;;
6953;SDS011;3516;47.980;8.808;2023-04-03T16:09:21;7.88;;;5.53;;
6953;SDS011;3516;47.980;8.808;2023-04-03T16:11:48;9.38;;;6.10;;
6953;SDS011;3516;47.980;8.808;2023-04-03T16:14:15;13.27;;;7.13;;
6953;SDS011;3516;47.980;8.808;2023-04-03T16:16:42;3.97;;;3.58;;
6953;SDS011;3516;47.980;8.808;2023-04-03T16:19:08;5.30;;;4.45;;
6953;SDS011;3516;47.980;8.808;2023-04-03T16:21:37;5.53;;;3.92;;
6953;SDS011;3516;47.980;8.808;2023-04-03T16:24:05;10.48;;;4.57;;
6953;SDS011;3516;47.980;8.808;2023-04-03T16:26:32;3.58;;;3.05;;
6953;SDS011;3516;47.980;8.808;2023-04-03T16:28:58;3.58;;;3.28;;
6953;SDS011;3516;47.980;8.808;2023-04-03T16:31:25;3.10;;;2.72;;
6953;SDS011;3516;47.980;8.808;2023-04-03T16:33:53;10.45;;;5.05;;
6953;SDS011;3516;47.980;8.808;2023-04-03T16:36:20;6.53;;;3.83;;
6953;SDS011;3516;47.980;8.808;2023-04-03T16:38:48;2.47;;;2.28;;
6953;SDS011;3516;47.980;8.808;2023-04-03T16:41:15;4.10;;;2.67;;
6953;SDS011;3516;47.980;8.808;2023-04-03T16:43:42;2.10;;;1.92;;
6953;SDS011;3516;47.980;8.808;2023-04-03T16:46:09;4.00;;;3.22;;
6953;SDS011;3516;47.980;8.808;2023-04-03T16:48:35;4.28;;;3.75;;
6953;SDS011;3516;47.980;8.808;2023-04-03T16:51:02;3.15;;;2.50;;
6953;SDS011;3516;47.980;8.808;2023-04-03T16:53:29;2.50;;;2.30;;
6953;SDS011;3516;47.980;8.808;2023-04-03T16:55:58;2.17;;;2.08;;
6953;SDS011;3516;47.980;8.808;2023-04-03T16:58:25;2.47;;;2.10;;
6953;SDS011;3516;47.980;8.808;2023-04-03T17:00:51;2.60;;;2.40;;
6953;SDS011;3516;47.980;8.808;2023-04-03T17:03:20;3.40;;;2.92;;
6953;SDS011;3516;47.980;8.808;2023-04-03T17:05:48;2.17;;;2.05;;
6953;SDS011;3516;47.980;8.808;2023-04-03T17:08:15;2.30;;;2.20;;
6953;SDS011;3516;47.980;8.808;2023-04-03T17:10:43;1.90;;;1.80;;
6953;SDS011;3516;47.980;8.808;2023-04-03T17:13:11;2.92;;;1.85;;
6953;SDS011;3516;47.980;8.808;2023-04-03T17:15:38;5.25;;;2.38;;
6953;SDS011;3516;47.980;8.808;2023-04-03T17:18:05;4.35;;;3.58;;
6953;SDS011;3516;47.980;8.808;2023-04-03T17:20:32;8.38;;;3.97;;
6953;SDS011;3516;47.980;8.808;2023-04-03T17:23:01;4.72;;;2.75;;
6953;SDS011;3516;47.980;8.808;2023-04-03T17:25:27;4.40;;;2.80;;
6953;SDS011;3516;47.980;8.808;2023-04-03T17:27:54;4.28;;;3.42;;
6953;SDS011;3516;47.980;8.808;2023-04-03T17:30:22;3.33;;;3.03;;
6953;SDS011;3516;47.980;8.808;2023-04-03T17:32:49;4.28;;;3.80;;
6953;SDS011;3516;47.980;8.808;2023-04-03T17:35:16;4.53;;;3.20;;
6953;SDS011;3516;47.980;8.808;2023-04-03T17:37:43;5.45;;;2.92;;
6953;SDS011;3516;47.980;8.808;2023-04-03T17:40:09;2.35;;;2.05;;
6953;SDS011;3516;47.980;8.808;2023-04-03T17:42:38;3.35;;;3.05;;
6953;SDS011;3516;47.980;8.808;2023-04-03T17:45:06;4.10;;;3.35;;
6953;SDS011;3516;47.980;8.808;2023-04-03T17:47:35;3.85;;;2.80;;
6953;SDS011;3516;47.980;8.808;2023-04-03T17:50:02;2.25;;;2.10;;
6953;SDS011;3516;47.980;8.808;2023-04-03T17:52:29;2.58;;;2.40;;
6953;SDS011;3516;47.980;8.808;2023-04-03T17:54:55;2.47;;;2.28;;
6953;SDS011;3516;47.980;8.808;2023-04-03T17:57:22;3.20;;;2.90;;
6953;SDS011;3516;47.980;8.808;2023-04-03T17:59:49;3.63;;;2.88;;
6953;SDS011;3516;47.980;8.808;2023-04-03T18:02:17;3.33;;;3.03;;
6953;SDS011;3516;47.980;8.808;2023-04-03T18:04:46;2.72;;;2.53;;
6953;SDS011;3516;47.980;8.808;2023-04-03T18:07:12;2.58;;;2.38;;
6953;SDS011;3516;47.980;8.808;2023-04-03T18:09:39;2.55;;;2.35;;
6953;SDS011;3516;47.980;8.808;2023-04-03T18:12:06;2.70;;;2.50;;
6953;SDS011;3516;47.980;8.808;2023-04-03T18:14:35;3.03;;;2.83;;
6953;SDS011;3516;47.980;8.808;2023-04-03T18:17:03;3.65;;;2.95;;
6953;SDS011;3516;47.980;8.808;2023-04-03T18:19:30;3.25;;;3.05;;
6953;SDS011;3516;47.980;8.808;2023-04-03T18:21:59;3.00;;;2.80;;
6953;SDS011;3516;47.980;8.808;2023-04-03T18:24:28;2.97;;;2.60;;
6953;SDS011;3516;47.980;8.808;2023-04-03T18:26:57;2.63;;;2.17;;
6953;SDS011;3516;47.980;8.808;2023-04-03T18:29:25;2.63;;;2.45;;
6953;SDS011;3516;47.980;8.808;2023-04-03T18:31:54;3.25;;;2.15;;
6953;SDS011;3516;47.980;8.808;2023-04-03T18:34:21;3.20;;;2.10;;
6953;SDS011;3516;47.980;8.808;2023-04-03T18:36:48;3.28;;;2.35;;
6953;SDS011;3516;47.980;8.808;2023-04-03T18:39:17;3.13;;;2.72;;
6953;SDS011;3516;47.980;8.808;2023-04-03T18:41:44;2.63;;;2.42;;
6953;SDS011;3516;47.980;8.808;2023-04-03T18:44:12;2.58;;;2.38;;
6953;SDS011;3516;47.980;8.808;2023-04-03T18:46:42;3.08;;;2.45;;
6953;SDS011;3516;47.980;8.808;2023-04-03T18:49:10;4.95;;;3.00;;
6953;SDS011;3516;47.980;8.808;2023-04-03T18:51:38;3.50;;;2.97;;
6953;SDS011;3516;47.980;8.808;2023-04-03T18:54:06;4.07;;;3.55;;
6953;SDS011;3516;47.980;8.808;2023-04-03T18:56:35;6.57;;;3.30;;
6953;SDS011;3516;47.980;8.808;2023-04-03T18:59:02;2.75;;;2.55;;
6953;SDS011;3516;47.980;8.808;2023-04-03T19:01:29;3.40;;;2.70;;
6953;SDS011;3516;47.980;8.808;2023-04-03T19:03:55;4.75;;;3.28;;
6953;SDS011;3516;47.980;8.808;2023-04-03T19:06:22;3.33;;;2.60;;
6953;SDS011;3516;47.980;8.808;2023-04-03T19:08:49;2.38;;;2.28;;
6953;SDS011;3516;47.980;8.808;2023-04-03T19:11:16;2.03;;;1.90;;
6953;SDS011;3516;47.980;8.808;2023-04-03T19:13:44;4.78;;;2.33;;
6953;SDS011;3516;47.980;8.808;2023-04-03T19:16:11;4.80;;;2.40;;
6953;SDS011;3516;47.980;8.808;2023-04-03T19:18:38;2.92;;;2.72;;
6953;SDS011;3516;47.980;8.808;2023-04-03T19:21:05;3.58;;;2.58;;
6953;SDS011;3516;47.980;8.808;2023-04-03T19:23:31;4.63;;;3.05;;
6953;SDS011;3516;47.980;8.808;2023-04-03T19:25:58;2.70;;;2.50;;
6953;SDS011;3516;47.980;8.808;2023-04-03T19:28:26;3.75;;;3.00;;
6953;SDS011;3516;47.980;8.808;2023-04-03T19:30:54;3.95;;;3.65;;
6953;SDS011;3516;47.980;8.808;2023-04-03T19:33:22;4.32;;;3.10;;
6953;SDS011;3516;47.980;8.808;2023-04-03T19:35:49;2.97;;;2.45;;
6953;SDS011;3516;47.980;8.808;2023-04-03T19:38:15;4.15;;;2.75;;
6953;SDS011;3516;47.980;8.808;2023-04-03T19:40:42;4.40;;;3.03;;
6953;SDS011;3516;47.980;8.808;2023-04-03T19:43:10;2.88;;;2.58;;
6953;SDS011;3516;47.980;8.808;2023-04-03T19:45:37;3.33;;;2.58;;
6953;SDS011;3516;47.980;8.808;2023-04-03T19:48:05;2.45;;;2.33;;
6953;SDS011;3516;47.980;8.808;2023-04-03T19:50:32;5.15;;;3.20;;
6953;SDS011;3516;47.980;8.808;2023-04-03T19:53:00;2.92;;;2.22;;
6953;SDS011;3516;47.980;8.808;2023-04-03T19:55:27;3.03;;;2.47;;
6953;SDS011;3516;47.980;8.808;2023-04-03T19:57:56;2.47;;;2.28;;
6953;SDS011;3516;47.980;8.808;2023-04-03T20:00:23;2.85;;;2.38;;
6953;SDS011;3516;47.980;8.808;2023-04-03T20:02:50;2.13;;;1.92;;
6953;SDS011;3516;47.980;8.808;2023-04-03T20:05:18;2.78;;;2.55;;
6953;SDS011;3516;47.980;8.808;2023-04-03T20:07:45;2.20;;;2.15;;
6953;SDS011;3516;47.980;8.808;2023-04-03T20:10:12;2.13;;;1.92;;
6953;SDS011;3516;47.980;8.808;2023-04-03T20:12:39;2.72;;;2.63;;
6953;SDS011;3516;47.980;8.808;2023-04-03T20:15:07;3.65;;;2.65;;
6953;SDS011;3516;47.980;8.808;2023-04-03T20:17:34;2.72;;;2.53;;
6953;SDS011;3516;47.980;8.808;2023-04-03T20:20:02;4.35;;;2.40;;
6953;SDS011;3516;47.980;8.808;2023-04-03T20:22:31;5.20;;;2.50;;
6953;SDS011;3516;47.980;8.808;2023-04-03T20:25:00;2.35;;;2.25;;
6953;SDS011;3516;47.980;8.808;2023-04-03T20:27:27;3.38;;;2.67;;
6953;SDS011;3516;47.980;8.808;2023-04-03T20:29:54;2.80;;;2.60;;
6953;SDS011;3516;47.980;8.808;2023-04-03T20:32:21;8.10;;;2.15;;